Time;durP1;ratioP1;P1;durP2;ratioP2;P2;SDS_P1;SDS_P2;PMS_P1;PMS_P2;Temp;Humidity;BMP_temperature;BMP_pressure;BME280_temperature;BME280_humidity;BME280_pressure;Samples;Min_cycle;Max_cycle;Signal;HPM_P1;HPM_P2
2021/07/23 00:00:25;;;;;;;12.07;10.33;;;17.90;99.90;;;;;;5042287;28;20249;-77
2021/07/23 00:02:51;;;;;;;13.87;11.57;;;17.90;99.90;;;;;;5027165;28;20225;-77
2021/07/23 00:05:18;;;;;;;14.03;10.30;;;17.90;99.90;;;;;;5024700;28;20559;-77
2021/07/23 00:07:45;;;;;;;11.83;9.87;;;17.90;99.90;;;;;;5027691;28;20281;-77
2021/07/23 00:10:12;;;;;;;12.63;10.43;;;17.90;99.90;;;;;;5027521;28;20196;-77
2021/07/23 00:12:39;;;;;;;14.03;12.60;;;17.90;99.90;;;;;;5040298;28;20197;-77
2021/07/23 00:15:09;;;;;;;16.40;14.70;;;17.80;99.90;;;;;;5025442;28;20190;-77
2021/07/23 00:17:35;;;;;;;15.37;13.97;;;17.90;99.90;;;;;;5042191;28;20270;-77
2021/07/23 00:20:02;;;;;;;17.00;15.40;;;17.80;99.90;;;;;;5025068;28;20192;-77
2021/07/23 00:22:29;;;;;;;16.90;15.20;;;17.80;99.90;;;;;;5042485;28;20238;-77
2021/07/23 00:24:56;;;;;;;15.73;14.23;;;17.80;99.90;;;;;;5028917;28;20245;-77
2021/07/23 00:27:23;;;;;;;14.47;13.17;;;17.80;99.90;;;;;;5044896;28;20216;-77
2021/07/23 00:29:49;;;;;;;16.90;15.10;;;17.80;99.90;;;;;;5040029;28;20788;-77
2021/07/23 00:32:17;;;;;;;15.83;14.33;;;17.80;99.90;;;;;;5041555;28;20253;-77
2021/07/23 00:34:44;;;;;;;15.97;14.13;;;17.70;99.90;;;;;;5043311;28;20203;-77
2021/07/23 00:37:11;;;;;;;16.70;15.07;;;17.70;99.90;;;;;;5032888;28;20733;-77
2021/07/23 00:39:38;;;;;;;15.53;13.93;;;17.70;99.90;;;;;;5042358;28;20207;-77
2021/07/23 00:42:05;;;;;;;15.80;14.30;;;17.60;99.90;;;;;;5021285;28;20203;-77
2021/07/23 00:44:32;;;;;;;14.37;12.57;;;17.60;99.90;;;;;;5019741;28;20216;-77
2021/07/23 00:46:59;;;;;;;13.30;12.00;;;17.60;99.90;;;;;;5023644;28;20200;-77
2021/07/23 00:49:29;;;;;;;14.87;13.30;;;17.60;99.90;;;;;;5023296;28;20587;-77
2021/07/23 00:51:56;;;;;;;14.83;12.93;;;17.50;99.90;;;;;;5015201;28;20196;-77
2021/07/23 00:54:24;;;;;;;13.73;12.07;;;17.50;99.90;;;;;;5041484;28;20519;-77
2021/07/23 00:56:51;;;;;;;13.67;12.27;;;17.50;99.90;;;;;;5024673;28;20197;-77
2021/07/23 00:59:18;;;;;;;14.57;12.67;;;17.50;99.90;;;;;;5039824;28;20215;-77
2021/07/23 01:01:46;;;;;;;13.97;12.47;;;17.50;99.90;;;;;;5042163;28;20191;-77
2021/07/23 01:04:14;;;;;;;13.67;12.27;;;17.40;99.90;;;;;;5041555;28;20203;-77
2021/07/23 01:06:42;;;;;;;15.03;12.53;;;17.40;99.90;;;;;;5037639;28;20199;-77
2021/07/23 01:09:10;;;;;;;15.17;13.67;;;17.40;99.90;;;;;;5040135;28;20200;-77
2021/07/23 01:11:38;;;;;;;14.63;12.17;;;17.30;99.90;;;;;;5041288;28;20311;-78
2021/07/23 01:14:18;;;;;;;14.20;12.57;;;17.30;99.90;;;;;;5023052;28;20215;-78
2021/07/23 01:16:45;;;;;;;13.27;11.87;;;17.30;99.90;;;;;;5024084;28;20245;-77
2021/07/23 01:19:15;;;;;;;14.47;12.97;;;17.20;99.90;;;;;;5035712;28;20215;-78
2021/07/23 01:21:49;;;;;;;12.73;11.43;;;17.20;99.90;;;;;;5025474;28;20191;-77
2021/07/23 01:24:18;;;;;;;13.97;12.37;;;17.20;99.90;;;;;;5023084;28;20245;-77
2021/07/23 01:26:50;;;;;;;16.63;14.93;;;17.20;99.90;;;;;;5036746;28;20721;-78
2021/07/23 01:29:28;;;;;;;16.30;14.93;;;17.20;99.90;;;;;;5019437;28;20586;-78
2021/07/23 01:31:55;;;;;;;14.70;13.20;;;17.10;99.90;;;;;;5025767;28;20198;-77
2021/07/23 01:34:22;;;;;;;13.90;12.50;;;17.10;99.90;;;;;;5022100;28;20199;-77
2021/07/23 01:36:49;;;;;;;13.07;11.70;;;17.10;99.90;;;;;;5042362;28;20278;-78
2021/07/23 01:39:18;;;;;;;13.10;11.80;;;17.10;99.90;;;;;;5022285;28;20211;-77
2021/07/23 01:41:45;;;;;;;14.27;12.77;;;17.00;99.90;;;;;;5040878;28;20222;-77
2021/07/23 01:44:12;;;;;;;15.07;13.47;;;17.00;99.90;;;;;;5022516;28;20212;-78
2021/07/23 01:46:39;;;;;;;19.53;17.87;;;17.00;99.90;;;;;;5026516;28;20206;-77
2021/07/23 01:49:16;;;;;;;16.17;13.27;;;16.90;99.90;;;;;;5040508;28;20202;-77
2021/07/23 01:51:44;;;;;;;14.83;12.07;;;16.90;99.90;;;;;;5018044;28;20195;-77
2021/07/23 01:54:29;;;;;;;18.83;17.13;;;16.80;99.90;;;;;;5018456;28;20219;-77
2021/07/23 01:56:58;;;;;;;17.73;15.97;;;16.80;99.90;;;;;;5027734;28;20596;-77
2021/07/23 01:59:25;;;;;;;17.37;15.67;;;16.80;99.90;;;;;;5035260;28;20299;-77
2021/07/23 02:01:52;;;;;;;17.77;16.07;;;16.70;99.90;;;;;;5042029;28;20190;-77
2021/07/23 02:04:30;;;;;;;16.87;15.27;;;16.70;99.90;;;;;;5022215;28;20596;-77
2021/07/23 02:06:57;;;;;;;17.60;15.90;;;16.60;99.90;;;;;;5037682;28;20597;-77
2021/07/23 02:09:24;;;;;;;17.70;15.93;;;16.60;99.90;;;;;;5040184;28;20286;-77
2021/07/23 02:11:57;;;;;;;18.47;16.57;;;16.50;99.90;;;;;;5018240;28;20200;-77
2021/07/23 02:14:35;;;;;;;16.50;15.00;;;16.50;99.90;;;;;;5017301;28;20205;-77
2021/07/23 02:17:02;;;;;;;18.17;16.47;;;16.50;99.90;;;;;;5041274;28;20203;-77
2021/07/23 02:19:29;;;;;;;18.40;16.70;;;16.40;99.90;;;;;;5022150;28;20214;-77
2021/07/23 02:22:06;;;;;;;17.33;15.73;;;16.40;99.90;;;;;;5021598;28;20207;-77
2021/07/23 02:24:32;;;;;;;17.30;15.60;;;16.30;99.90;;;;;;5039950;28;20196;-77
2021/07/23 02:27:01;;;;;;;18.17;16.47;;;16.30;99.90;;;;;;5021581;28;20196;-77
2021/07/23 02:29:28;;;;;;;17.57;15.87;;;16.30;99.90;;;;;;5025314;28;20211;-77
2021/07/23 02:31:55;;;;;;;18.37;16.63;;;16.30;99.90;;;;;;5031172;28;20204;-76
2021/07/23 02:34:23;;;;;;;18.33;16.20;;;16.20;99.90;;;;;;5020817;28;20199;-76
2021/07/23 02:36:52;;;;;;;17.73;15.93;;;16.10;99.90;;;;;;5023936;28;20609;-77
2021/07/23 02:39:24;;;;;;;17.10;15.50;;;16.10;99.90;;;;;;5021593;28;20649;-78
2021/07/23 02:41:57;;;;;;;16.83;15.33;;;16.00;99.90;;;;;;5013214;28;20237;-76
2021/07/23 02:44:27;;;;;;;18.77;16.87;;;16.00;99.90;;;;;;5019021;28;20569;-78
2021/07/23 02:46:54;;;;;;;18.13;16.50;;;16.00;99.90;;;;;;5027234;28;20218;-77
2021/07/23 02:49:22;;;;;;;17.50;15.93;;;15.90;99.90;;;;;;5043543;28;20199;-79
2021/07/23 02:51:52;;;;;;;17.53;15.93;;;15.90;99.90;;;;;;5034849;28;20280;-80
2021/07/23 02:54:20;;;;;;;18.10;16.30;;;15.80;99.90;;;;;;5025584;28;20211;-80
2021/07/23 02:56:48;;;;;;;17.23;15.70;;;15.80;99.90;;;;;;5022598;28;20282;-79
2021/07/23 02:59:15;;;;;;;17.33;15.73;;;15.80;99.90;;;;;;5017278;28;20227;-79
2021/07/23 03:01:49;;;;;;;16.83;15.33;;;15.80;99.90;;;;;;5022113;28;20660;-78
2021/07/23 03:04:24;;;;;;;17.37;15.87;;;15.80;99.90;;;;;;5042365;28;20219;-78
2021/07/23 03:06:52;;;;;;;17.67;15.97;;;15.70;99.90;;;;;;5039882;28;20215;-79
2021/07/23 03:09:20;;;;;;;17.20;15.60;;;15.70;99.90;;;;;;5016441;28;20265;-79
2021/07/23 03:11:48;;;;;;;17.50;15.83;;;15.70;99.90;;;;;;5017130;28;20196;-79
2021/07/23 03:14:15;;;;;;;17.90;16.03;;;15.60;99.90;;;;;;5018678;28;20199;-79
2021/07/23 03:17:08;;;;;;;19.30;17.50;;;15.60;99.90;;;;;;5048095;28;20234;-79
2021/07/23 03:19:35;;;;;;;18.83;16.97;;;15.60;99.90;;;;;;5038667;28;20309;-79
2021/07/23 03:22:03;;;;;;;17.93;16.20;;;15.60;99.90;;;;;;5041599;28;20707;-77
2021/07/23 03:24:33;;;;;;;18.13;16.53;;;15.50;99.90;;;;;;5029685;28;20593;-79
2021/07/23 03:27:01;;;;;;;18.13;16.47;;;15.50;99.90;;;;;;5025149;28;20191;-78
2021/07/23 03:29:28;;;;;;;19.47;17.67;;;15.50;99.90;;;;;;5034124;28;20216;-77
2021/07/23 03:31:55;;;;;;;18.77;16.97;;;15.50;99.90;;;;;;5016013;28;20283;-77
2021/07/23 03:34:30;;;;;;;19.90;18.00;;;15.50;99.90;;;;;;5023859;28;20242;-76
2021/07/23 03:36:59;;;;;;;18.43;16.53;;;15.50;99.90;;;;;;5024326;28;20557;-76
2021/07/23 03:39:45;;;;;;;19.13;17.40;;;15.60;99.90;;;;;;5044645;28;20199;-78
2021/07/23 03:42:14;;;;;;;18.27;16.57;;;15.50;99.90;;;;;;5025139;28;20814;-76
2021/07/23 03:44:50;;;;;;;19.13;17.33;;;15.50;99.90;;;;;;5027250;28;20220;-76
2021/07/23 03:47:18;;;;;;;18.23;16.53;;;15.40;99.90;;;;;;5028025;28;20656;-78
2021/07/23 03:49:47;;;;;;;18.43;16.73;;;15.50;99.90;;;;;;5026000;28;20195;-76
2021/07/23 03:52:15;;;;;;;19.47;17.63;;;15.50;99.90;;;;;;5024540;28;20218;-76
2021/07/23 03:55:16;;;;;;;18.03;16.37;;;15.50;99.90;;;;;;5045702;28;20289;-75
2021/07/23 03:57:43;;;;;;;18.23;16.63;;;15.50;99.90;;;;;;5025126;28;20253;-76
2021/07/23 04:00:11;;;;;;;17.70;16.10;;;15.50;99.90;;;;;;5045921;28;20187;-76
2021/07/23 04:02:45;;;;;;;17.07;15.47;;;15.50;99.90;;;;;;5052696;28;20191;-77
2021/07/23 04:05:14;;;;;;;19.93;18.13;;;15.60;99.90;;;;;;5048623;28;20203;-78
2021/07/23 04:07:41;;;;;;;19.57;17.77;;;15.60;99.90;;;;;;5044098;28;20675;-76
2021/07/23 04:10:11;;;;;;;19.67;17.73;;;15.60;99.90;;;;;;5033557;28;20225;-76
2021/07/23 04:12:38;;;;;;;18.53;16.93;;;15.70;99.90;;;;;;5042613;28;20196;-76
2021/07/23 04:15:09;;;;;;;20.33;18.33;;;15.70;99.90;;;;;;5024942;28;20184;-77
2021/07/23 04:17:48;;;;;;;21.53;19.43;;;15.80;99.90;;;;;;5027201;28;20223;-76
2021/07/23 04:20:17;;;;;;;20.97;18.97;;;15.80;99.90;;;;;;5038317;28;20212;-77
2021/07/23 04:22:46;;;;;;;20.00;18.20;;;15.90;99.90;;;;;;5026841;28;20245;-77
2021/07/23 04:25:20;;;;;;;20.37;18.27;;;15.90;99.90;;;;;;5042905;28;20210;-77
2021/07/23 04:27:47;;;;;;;19.17;17.17;;;15.90;99.90;;;;;;5038231;28;20247;-77
2021/07/23 04:30:20;;;;;;;20.07;18.17;;;15.90;99.90;;;;;;5021540;28;20192;-76
2021/07/23 04:33:25;;;;;;;17.67;16.17;;;16.00;99.90;;;;;;5008008;28;20302;-78
2021/07/23 04:36:19;;;;;;;20.30;18.50;;;16.00;99.90;;;;;;5036486;28;20209;-76
2021/07/23 04:38:46;;;;;;;19.93;18.03;;;16.10;99.90;;;;;;5040483;28;20681;-77
2021/07/23 04:41:13;;;;;;;18.60;16.80;;;16.20;99.90;;;;;;5042389;28;20192;-79
2021/07/23 04:43:47;;;;;;;19.07;17.37;;;16.30;99.90;;;;;;5043878;28;20183;-77
2021/07/23 04:46:14;;;;;;;18.03;16.43;;;16.40;99.90;;;;;;5041856;28;20246;-78
2021/07/23 04:48:42;;;;;;;19.63;17.83;;;16.40;99.90;;;;;;5025253;28;20268;-79
2021/07/23 04:51:23;;;;;;;15.67;13.97;;;16.50;99.90;;;;;;5023642;28;20203;-78
2021/07/23 04:54:13;;;;;;;19.60;17.80;;;16.60;99.90;;;;;;5041161;28;20196;-78
2021/07/23 04:56:58;;;;;;;18.30;16.60;;;16.70;99.90;;;;;;5038647;28;20816;-77
2021/07/23 04:59:27;;;;;;;16.03;14.33;;;16.80;99.90;;;;;;5039015;23;20237;-76
2021/07/23 05:01:54;;;;;;;15.33;13.93;;;16.90;99.90;;;;;;5040724;28;20210;-76
2021/07/23 05:04:21;;;;;;;17.10;15.60;;;17.10;99.90;;;;;;5030198;28;20207;-76
2021/07/23 05:06:49;;;;;;;15.47;14.07;;;17.30;99.90;;;;;;5017340;28;20214;-75
2021/07/23 05:09:16;;;;;;;16.77;15.00;;;17.40;99.90;;;;;;5022073;28;20215;-76
2021/07/23 05:11:45;;;;;;;16.27;14.67;;;17.40;99.90;;;;;;5023447;28;20188;-76
2021/07/23 05:14:12;;;;;;;15.40;14.00;;;17.50;99.90;;;;;;5022263;28;20685;-75
2021/07/23 05:16:41;;;;;;;15.07;13.47;;;17.60;99.90;;;;;;5022506;28;20299;-76
2021/07/23 05:19:10;;;;;;;16.10;14.53;;;17.70;99.90;;;;;;5017520;28;20266;-76
2021/07/23 05:21:38;;;;;;;16.87;15.33;;;17.80;99.90;;;;;;5024389;28;20193;-75
2021/07/23 05:24:06;;;;;;;16.30;14.80;;;17.80;99.90;;;;;;5021385;28;20196;-76
2021/07/23 05:26:35;;;;;;;16.23;14.73;;;17.90;99.90;;;;;;5023602;28;20557;-76
2021/07/23 05:29:02;;;;;;;16.97;15.47;;;18.00;99.90;;;;;;5020436;28;20298;-75
2021/07/23 05:31:29;;;;;;;16.73;15.17;;;18.10;99.90;;;;;;5021951;28;20198;-76
2021/07/23 05:33:57;;;;;;;16.40;14.90;;;18.20;99.90;;;;;;5023414;28;20202;-76
2021/07/23 05:36:24;;;;;;;15.23;13.77;;;18.40;99.90;;;;;;5021398;28;20680;-76
2021/07/23 05:38:51;;;;;;;17.97;16.10;;;18.50;99.90;;;;;;5023479;28;20277;-76
2021/07/23 05:41:20;;;;;;;16.00;14.60;;;18.60;99.90;;;;;;5013606;28;20613;-75
2021/07/23 05:43:47;;;;;;;14.00;12.47;;;18.80;99.90;;;;;;5022468;28;20199;-76
2021/07/23 05:46:15;;;;;;;12.67;9.60;;;18.90;99.90;;;;;;5019017;28;20215;-76
2021/07/23 05:48:42;;;;;;;13.87;12.47;;;19.10;99.90;;;;;;5016829;28;20675;-76
2021/07/23 05:51:10;;;;;;;17.73;16.13;;;19.30;99.90;;;;;;5023384;28;20199;-76
2021/07/23 05:53:37;;;;;;;16.33;14.77;;;19.60;99.90;;;;;;5017587;28;20204;-76
2021/07/23 05:56:04;;;;;;;17.23;15.60;;;20.20;99.90;;;;;;5021818;28;20213;-76
2021/07/23 05:58:33;;;;;;;15.17;13.60;;;20.80;99.90;;;;;;5021146;28;20641;-76
2021/07/23 06:01:05;;;;;;;16.87;15.20;;;21.20;99.90;;;;;;5021503;28;20195;-77
2021/07/23 06:03:32;;;;;;;15.27;12.57;;;21.60;99.90;;;;;;5018199;28;20591;-76
2021/07/23 06:06:00;;;;;;;14.53;13.10;;;21.80;99.90;;;;;;5020752;28;20286;-76
2021/07/23 06:08:27;;;;;;;15.43;13.93;;;22.10;99.90;;;;;;5025168;28;20214;-76
2021/07/23 06:10:53;;;;;;;16.00;14.43;;;22.10;99.90;;;;;;5017555;28;20674;-76
2021/07/23 06:13:20;;;;;;;16.37;14.77;;;22.00;99.90;;;;;;5018138;28;20195;-77
2021/07/23 06:15:48;;;;;;;13.73;12.43;;;22.00;99.90;;;;;;5021097;28;20204;-77
2021/07/23 06:18:15;;;;;;;15.70;14.20;;;22.30;99.90;;;;;;5020685;28;20200;-77
2021/07/23 06:20:42;;;;;;;11.00;9.53;;;22.50;99.90;;;;;;5022198;28;20654;-76
2021/07/23 06:23:09;;;;;;;14.10;12.70;;;22.40;99.90;;;;;;5021226;28;20650;-76
2021/07/23 06:25:36;;;;;;;15.00;13.60;;;22.30;99.90;;;;;;5023914;28;20295;-76
2021/07/23 06:28:04;;;;;;;15.57;14.17;;;22.10;99.90;;;;;;5024738;28;20247;-76
2021/07/23 06:30:31;;;;;;;13.27;11.87;;;21.90;99.90;;;;;;5016828;28;20181;-76
2021/07/23 06:33:00;;;;;;;14.67;13.17;;;22.00;99.90;;;;;;5013885;28;20188;-76
2021/07/23 06:35:29;;;;;;;14.73;13.27;;;22.20;99.90;;;;;;5023469;28;20235;-76
2021/07/23 06:37:57;;;;;;;15.47;13.97;;;22.50;99.90;;;;;;5017008;28;20192;-76
2021/07/23 06:40:24;;;;;;;15.47;13.90;;;23.20;99.90;;;;;;5021051;28;20238;-76
2021/07/23 06:42:51;;;;;;;16.83;15.23;;;23.50;99.90;;;;;;5028422;28;20201;-77
2021/07/23 06:45:18;;;;;;;13.20;11.50;;;23.80;99.90;;;;;;5024954;28;20220;-76
2021/07/23 06:47:45;;;;;;;11.83;10.43;;;24.00;99.90;;;;;;5020240;28;20202;-76
2021/07/23 06:50:13;;;;;;;15.17;11.03;;;24.20;99.90;;;;;;5028348;28;20211;-77
2021/07/23 06:52:40;;;;;;;12.40;9.70;;;24.30;99.90;;;;;;5021114;28;20198;-76
2021/07/23 06:55:08;;;;;;;14.07;10.73;;;24.70;99.90;;;;;;5025155;28;20207;-76
2021/07/23 06:57:34;;;;;;;11.00;9.57;;;24.90;99.90;;;;;;5025525;28;20598;-76
2021/07/23 07:00:01;;;;;;;13.43;9.97;;;24.80;99.90;;;;;;5026836;28;20216;-76
2021/07/23 07:02:28;;;;;;;14.40;9.70;;;24.80;99.90;;;;;;5019124;28;20204;-76
2021/07/23 07:04:55;;;;;;;12.43;9.40;;;25.10;99.90;;;;;;5028854;28;20204;-76
2021/07/23 07:07:23;;;;;;;12.63;10.40;;;25.40;99.90;;;;;;5024811;28;20189;-76
2021/07/23 07:09:51;;;;;;;12.30;9.63;;;25.30;99.90;;;;;;5026738;28;20212;-76
2021/07/23 07:12:18;;;;;;;10.83;8.97;;;25.70;99.90;;;;;;5023608;28;20189;-77
2021/07/23 07:14:45;;;;;;;11.67;10.27;;;26.00;99.90;;;;;;5026234;28;20196;-76
2021/07/23 07:17:11;;;;;;;14.30;12.80;;;26.20;99.90;;;;;;5023602;28;20192;-77
2021/07/23 07:19:38;;;;;;;13.87;12.57;;;26.20;99.90;;;;;;5020600;28;20216;-77
2021/07/23 07:22:05;;;;;;;14.20;12.80;;;26.50;99.90;;;;;;5023611;28;20185;-77
2021/07/23 07:24:33;;;;;;;14.57;13.33;;;26.60;99.90;;;;;;5024314;28;20231;-77
2021/07/23 07:27:01;;;;;;;16.37;14.33;;;26.70;99.90;;;;;;5014766;28;20185;-76
2021/07/23 07:29:28;;;;;;;14.40;13.10;;;26.50;99.90;;;;;;5023991;28;20207;-77
2021/07/23 07:31:55;;;;;;;14.60;13.30;;;26.50;99.90;;;;;;5024130;28;20268;-77
2021/07/23 07:34:21;;;;;;;15.40;13.80;;;26.50;99.90;;;;;;5025659;28;20539;-76
2021/07/23 07:36:48;;;;;;;14.83;13.53;;;26.50;99.90;;;;;;5021649;28;20188;-77
2021/07/23 07:39:15;;;;;;;14.67;13.17;;;26.60;99.90;;;;;;5021331;28;20216;-76
2021/07/23 07:41:43;;;;;;;14.60;13.30;;;26.80;99.90;;;;;;5024410;28;20536;-76
2021/07/23 07:44:10;;;;;;;13.47;12.27;;;26.80;99.90;;;;;;5023436;28;20200;-77
2021/07/23 07:46:37;;;;;;;14.27;12.93;;;27.10;99.90;;;;;;5021861;28;20596;-77
2021/07/23 07:49:03;;;;;;;14.27;12.97;;;27.30;99.90;;;;;;5025496;28;20227;-76
2021/07/23 07:51:30;;;;;;;15.33;13.80;;;27.50;99.90;;;;;;5025323;28;20533;-77
2021/07/23 07:53:57;;;;;;;14.40;12.90;;;27.70;99.90;;;;;;5024396;28;20270;-77
2021/07/23 07:56:24;;;;;;;15.17;13.80;;;27.80;99.90;;;;;;5031054;28;20188;-76
2021/07/23 07:58:52;;;;;;;15.00;13.60;;;28.00;99.90;;;;;;5023715;28;20245;-77
2021/07/23 08:01:19;;;;;;;15.13;13.70;;;28.00;99.90;;;;;;5020667;28;20196;-77
2021/07/23 08:03:46;;;;;;;16.67;15.17;;;28.10;99.90;;;;;;5026594;28;20242;-77
2021/07/23 08:06:20;;;;;;;15.50;14.00;;;28.10;99.90;;;;;;5031886;28;20257;-77
2021/07/23 08:08:48;;;;;;;15.33;13.83;;;28.10;99.90;;;;;;5016457;28;20576;-77
2021/07/23 08:11:15;;;;;;;14.97;13.60;;;28.00;99.90;;;;;;5014873;28;20201;-77
2021/07/23 08:13:42;;;;;;;17.13;15.63;;;28.40;99.90;;;;;;5014179;28;20204;-77
2021/07/23 08:16:11;;;;;;;15.93;14.23;;;28.50;99.90;;;;;;5022635;28;20239;-77
2021/07/23 08:18:39;;;;;;;15.30;14.00;;;28.20;99.90;;;;;;5022543;28;20212;-77
2021/07/23 08:21:06;;;;;;;15.20;13.80;;;28.20;99.90;;;;;;5019654;28;20199;-77
2021/07/23 08:23:35;;;;;;;14.23;12.93;;;28.10;99.90;;;;;;5019146;28;20530;-77
2021/07/23 08:26:04;;;;;;;15.33;13.93;;;28.20;99.90;;;;;;5022847;28;20700;-77
2021/07/23 08:28:31;;;;;;;14.07;12.77;;;28.20;99.90;;;;;;5027521;28;20215;-77
2021/07/23 08:30:58;;;;;;;14.20;12.70;;;28.20;99.90;;;;;;5017650;28;20254;-77
2021/07/23 08:33:28;;;;;;;13.03;11.93;;;28.40;99.90;;;;;;5023105;28;20601;-77
2021/07/23 08:35:55;;;;;;;13.83;12.43;;;28.60;99.90;;;;;;5024548;28;20199;-76
2021/07/23 08:38:22;;;;;;;14.67;12.63;;;28.80;99.90;;;;;;5019932;28;20223;-77
2021/07/23 08:40:49;;;;;;;15.50;13.00;;;28.90;99.90;;;;;;5023479;28;20247;-76
2021/07/23 08:43:16;;;;;;;14.57;13.17;;;28.60;99.90;;;;;;5017098;28;20262;-76
2021/07/23 08:45:43;;;;;;;13.37;11.97;;;28.10;99.90;;;;;;5016194;28;20303;-77
2021/07/23 08:48:10;;;;;;;14.30;12.80;;;28.60;99.90;;;;;;5025296;28;20192;-77
2021/07/23 08:50:38;;;;;;;14.33;12.97;;;28.60;99.90;;;;;;5025911;28;20192;-77
2021/07/23 08:53:10;;;;;;;13.43;12.20;;;28.70;99.90;;;;;;5019942;28;20204;-77
2021/07/23 08:55:38;;;;;;;16.23;14.73;;;28.50;99.90;;;;;;5023095;28;20242;-77
2021/07/23 08:58:07;;;;;;;16.80;15.20;;;28.10;99.90;;;;;;5023768;28;20188;-76
2021/07/23 09:00:34;;;;;;;14.83;12.33;;;28.10;99.90;;;;;;5030875;28;20286;-77
2021/07/23 09:03:03;;;;;;;14.70;13.40;;;28.10;99.90;;;;;;5020198;28;20180;-76
2021/07/23 09:05:31;;;;;;;15.37;14.10;;;28.30;99.90;;;;;;5024185;28;20207;-76
2021/07/23 09:08:01;;;;;;;15.20;13.63;;;28.60;99.90;;;;;;5024027;28;20200;-77
2021/07/23 09:10:29;;;;;;;14.00;12.70;;;28.50;99.90;;;;;;5021709;28;20197;-77
2021/07/23 09:12:59;;;;;;;13.17;11.93;;;28.50;99.90;;;;;;5024820;28;20188;-77
2021/07/23 09:15:29;;;;;;;15.30;12.83;;;28.90;99.90;;;;;;5018401;28;20203;-77
2021/07/23 09:17:56;;;;;;;13.30;12.10;;;29.00;99.90;;;;;;5020083;28;20195;-77
2021/07/23 09:20:25;;;;;;;15.67;14.17;;;28.90;99.90;;;;;;5028922;28;20212;-77
2021/07/23 09:22:54;;;;;;;14.00;12.30;;;28.90;99.90;;;;;;5022449;28;20191;-76
2021/07/23 09:25:45;;;;;;;12.77;11.53;;;29.00;99.90;;;;;;5020241;28;20546;-77
2021/07/23 09:28:29;;;;;;;15.13;13.73;;;29.10;99.90;;;;;;5023853;28;20762;-77
2021/07/23 09:30:57;;;;;;;15.70;14.33;;;29.10;99.90;;;;;;5018856;28;20200;-76
2021/07/23 09:33:33;;;;;;;15.50;14.03;;;29.10;99.90;;;;;;5021934;28;20184;-76
2021/07/23 09:36:03;;;;;;;14.70;13.40;;;28.80;99.90;;;;;;5008991;28;20195;-77
2021/07/23 09:38:40;;;;;;;14.87;13.57;;;28.70;99.90;;;;;;5016792;28;20274;-77
2021/07/23 09:41:10;;;;;;;16.10;14.63;;;28.80;99.90;;;;;;5015916;28;20199;-77
2021/07/23 09:43:39;;;;;;;14.87;13.57;;;28.60;99.90;;;;;;5019801;28;20721;-77
2021/07/23 09:46:27;;;;;;;13.60;12.60;;;28.80;99.90;;;;;;5023209;28;20249;-77
2021/07/23 09:48:56;;;;;;;14.87;12.93;;;29.00;99.90;;;;;;5022413;28;20208;-77
2021/07/23 09:51:25;;;;;;;14.70;13.40;;;29.10;99.90;;;;;;5021477;28;20615;-77
2021/07/23 09:53:53;;;;;;;14.00;12.73;;;29.10;99.90;;;;;;5017350;28;20196;-77
2021/07/23 09:56:23;;;;;;;14.67;13.40;;;28.80;99.90;;;;;;5024739;28;20191;-77
2021/07/23 09:58:56;;;;;;;13.70;12.40;;;28.90;99.90;;;;;;5021877;28;20224;-77
2021/07/23 10:01:27;;;;;;;12.83;11.63;;;28.80;99.90;;;;;;5022658;28;20195;-77
2021/07/23 10:03:58;;;;;;;14.40;13.20;;;29.00;99.90;;;;;;5016351;28;20195;-77
2021/07/23 10:06:30;;;;;;;13.43;11.87;;;29.50;99.90;;;;;;5018318;28;20751;-77
2021/07/23 10:09:01;;;;;;;12.53;11.33;;;29.70;99.90;;;;;;5019103;28;20646;-77
2021/07/23 10:11:29;;;;;;;12.53;11.43;;;30.00;99.90;;;;;;5020188;28;20188;-78
2021/07/23 10:14:00;;;;;;;14.50;13.20;;;30.30;99.90;;;;;;5019203;28;20212;-77
2021/07/23 10:16:27;;;;;;;13.50;12.30;;;30.50;99.90;;;;;;5020840;28;20567;-77
2021/07/23 10:18:54;;;;;;;13.43;12.17;;;30.30;99.90;;;;;;5022855;28;20220;-77
2021/07/23 10:21:21;;;;;;;14.83;13.53;;;30.20;99.90;;;;;;5022475;28;20649;-77
2021/07/23 10:23:48;;;;;;;15.33;13.73;;;30.10;99.90;;;;;;5017533;28;20193;-77
2021/07/23 10:26:17;;;;;;;14.57;13.17;;;30.20;99.90;;;;;;5019756;28;20682;-77
2021/07/23 10:28:57;;;;;;;15.00;13.63;;;30.20;99.90;;;;;;5019047;28;20226;-77
2021/07/23 10:31:43;;;;;;;12.83;11.63;;;29.60;99.90;;;;;;5020781;28;20188;-77
2021/07/23 10:34:10;;;;;;;14.57;12.63;;;29.70;99.90;;;;;;5019407;28;20196;-77
2021/07/23 10:36:42;;;;;;;15.67;14.17;;;29.30;99.90;;;;;;5022922;28;20192;-77
2021/07/23 10:39:17;;;;;;;15.73;13.87;;;29.10;99.90;;;;;;5019783;28;20211;-77
2021/07/23 10:42:31;;;;;;;15.27;13.87;;;28.80;99.90;;;;;;5017612;28;20187;-77
2021/07/23 10:45:00;;;;;;;15.10;13.10;;;28.90;99.90;;;;;;5016673;28;20215;-77
2021/07/23 10:47:38;;;;;;;14.47;13.17;;;28.60;99.90;;;;;;5023867;28;20265;-77
2021/07/23 10:50:07;;;;;;;13.67;12.37;;;28.50;99.90;;;;;;5014077;28;20203;-77
2021/07/23 10:52:37;;;;;;;14.47;13.07;;;28.60;99.90;;;;;;5019673;28;20825;-76
2021/07/23 10:55:28;;;;;;;14.07;12.77;;;28.60;99.90;;;;;;5020918;28;20199;-77
2021/07/23 11:00:59;;;;;;;13.37;12.07;;;29.00;99.90;;;;;;4992622;28;20279;-78
2021/07/23 11:03:48;;;;;;;13.43;12.23;;;29.10;99.90;;;;;;4984225;28;20608;-78
2021/07/23 11:06:17;;;;;;;14.07;12.77;;;29.10;99.90;;;;;;4991469;28;20233;-78
2021/07/23 11:08:48;;;;;;;14.97;13.47;;;28.90;99.90;;;;;;4997229;28;20198;-78
2021/07/23 11:11:15;;;;;;;14.80;13.37;;;28.50;99.90;;;;;;4980420;28;20194;-77
2021/07/23 11:13:42;;;;;;;14.93;13.47;;;28.40;99.90;;;;;;4981812;28;20212;-78
2021/07/23 11:16:12;;;;;;;13.83;12.53;;;28.30;99.90;;;;;;4981463;28;20202;-78
2021/07/23 11:18:51;;;;;;;14.57;13.10;;;28.20;99.90;;;;;;4984653;28;20670;-79
2021/07/23 11:21:18;;;;;;;13.70;12.47;;;28.20;99.90;;;;;;4984627;28;20224;-77
2021/07/23 11:23:46;;;;;;;14.30;12.90;;;28.20;99.90;;;;;;4983370;28;20198;-78
2021/07/23 11:26:13;;;;;;;14.50;13.00;;;27.90;99.90;;;;;;4982895;28;20269;-77
2021/07/23 11:28:48;;;;;;;14.37;12.83;;;27.90;99.90;;;;;;4985894;28;20193;-78
2021/07/23 11:31:29;;;;;;;14.93;13.53;;;28.10;99.90;;;;;;4982296;28;20225;-79
2021/07/23 11:33:57;;;;;;;14.43;13.13;;;27.70;99.90;;;;;;4992752;28;20276;-79
2021/07/23 11:36:38;;;;;;;13.13;11.97;;;27.60;99.90;;;;;;4984412;28;20229;-79
2021/07/23 11:39:07;;;;;;;13.60;12.33;;;27.90;99.90;;;;;;4981622;28;20228;-79
2021/07/23 11:41:34;;;;;;;13.23;11.97;;;28.00;99.90;;;;;;4983778;28;20213;-79
2021/07/23 11:44:09;;;;;;;13.90;12.73;;;28.00;99.90;;;;;;4978944;28;20205;-79
2021/07/23 11:46:38;;;;;;;14.13;12.80;;;28.00;99.90;;;;;;4985014;28;20579;-78
2021/07/23 11:49:05;;;;;;;14.53;13.23;;;27.90;99.90;;;;;;4979399;28;20220;-77
2021/07/23 11:51:41;;;;;;;13.90;12.30;;;27.80;99.90;;;;;;4984135;28;20236;-79
2021/07/23 11:54:08;;;;;;;13.93;12.73;;;27.80;99.90;;;;;;4986142;28;20197;-78
2021/07/23 11:56:35;;;;;;;13.43;12.03;;;27.80;99.90;;;;;;4986133;28;20194;-78
2021/07/23 11:59:04;;;;;;;11.27;9.40;;;27.80;99.90;;;;;;4982494;28;20228;-79
2021/07/23 12:01:39;;;;;;;10.37;8.90;;;27.80;99.90;;;;;;4982626;28;20190;-77
2021/07/23 12:04:07;;;;;;;14.03;12.60;;;27.70;99.90;;;;;;4976985;28;20181;-78
2021/07/23 12:06:36;;;;;;;14.40;13.00;;;27.60;99.90;;;;;;4984158;28;20209;-79
2021/07/23 12:09:05;;;;;;;13.20;11.93;;;27.60;99.90;;;;;;4983449;28;20581;-79
2021/07/23 12:11:34;;;;;;;13.33;12.13;;;27.70;99.90;;;;;;4983117;28;20189;-78
2021/07/23 12:14:07;;;;;;;14.23;12.77;;;27.70;99.90;;;;;;4978040;28;20205;-79
2021/07/23 12:16:34;;;;;;;14.80;13.40;;;27.80;99.90;;;;;;4986245;28;20208;-78
2021/07/23 12:19:04;;;;;;;13.87;12.47;;;27.80;99.90;;;;;;4980723;28;20213;-77
2021/07/23 12:21:31;;;;;;;13.87;12.70;;;27.70;99.90;;;;;;4980131;28;20281;-79
2021/07/23 12:23:59;;;;;;;14.37;12.97;;;27.60;99.90;;;;;;4984545;28;20659;-77
2021/07/23 12:26:28;;;;;;;13.83;12.53;;;27.60;99.90;;;;;;4982879;28;20616;-77
2021/07/23 12:28:56;;;;;;;13.30;11.83;;;27.70;99.90;;;;;;4981732;28;20224;-77
2021/07/23 12:31:23;;;;;;;14.50;13.20;;;27.60;99.90;;;;;;4981878;28;20206;-77
2021/07/23 12:34:06;;;;;;;14.60;13.20;;;27.50;99.90;;;;;;4985492;28;20197;-77
2021/07/23 12:36:40;;;;;;;12.93;11.83;;;27.30;99.90;;;;;;4983667;28;20188;-79
2021/07/23 12:39:08;;;;;;;14.43;12.93;;;27.30;99.90;;;;;;4981214;28;20213;-78
2021/07/23 12:41:34;;;;;;;14.40;13.00;;;27.50;99.90;;;;;;4979695;28;20192;-77
2021/07/23 12:44:06;;;;;;;13.30;12.10;;;27.60;99.90;;;;;;4985346;28;20592;-79